createdAt,value
2023-01-12T00:03:00.182Z,3.60
2023-01-12T00:05:30.283Z,3.70
2023-01-12T00:08:00.322Z,3.70
2023-01-12T00:10:30.362Z,3.60
2023-01-12T00:13:01.463Z,3.60
2023-01-12T00:16:00.053Z,3.60
2023-01-12T00:18:35.209Z,3.70
2023-01-12T00:21:06.608Z,3.70
2023-01-12T00:23:36.631Z,3.60
2023-01-12T00:26:22.036Z,3.60
2023-01-12T00:28:54.578Z,3.50
2023-01-12T00:34:09.378Z,3.60
2023-01-12T00:36:39.580Z,3.60
2023-01-12T00:39:10.531Z,3.70
2023-01-12T00:41:56.670Z,3.70
2023-01-12T00:47:26.404Z,3.60
2023-01-12T00:49:56.608Z,3.70
2023-01-12T00:52:31.485Z,3.80
2023-01-12T00:55:03.327Z,3.80
2023-01-12T00:57:33.612Z,3.90
2023-01-12T01:00:04.071Z,3.80
2023-01-12T01:02:36.782Z,3.80
2023-01-12T01:05:07.786Z,3.80
2023-01-12T01:07:37.808Z,3.70
2023-01-12T01:10:09.748Z,3.70
2023-01-12T01:12:40.024Z,3.70
2023-01-12T01:15:12.094Z,3.80
2023-01-12T01:17:44.968Z,3.80
2023-01-12T01:20:16.193Z,3.90
2023-01-12T01:22:46.306Z,3.80
2023-01-12T01:25:16.459Z,3.90
2023-01-12T01:27:46.498Z,3.90
2023-01-12T01:30:16.808Z,4.00
2023-01-12T01:32:49.411Z,4.10
2023-01-12T01:35:19.553Z,4.20
2023-01-12T01:37:49.588Z,4.30
2023-01-12T01:40:20.706Z,4.30
2023-01-12T01:42:50.728Z,4.30
2023-01-12T01:45:21.286Z,4.20
2023-01-12T01:48:14.348Z,4.10
2023-01-12T01:53:50.261Z,4.20
2023-01-12T01:56:27.855Z,4.10
2023-01-12T02:04:34.373Z,4.30
2023-01-12T02:07:06.228Z,4.40
2023-01-12T02:09:36.631Z,4.50
2023-01-12T02:12:20.736Z,4.70
2023-01-12T02:21:20.144Z,4.90
2023-01-12T02:27:55.018Z,5.20
2023-01-12T02:34:05.322Z,5.20
2023-01-12T02:36:47.847Z,5.30
2023-01-12T02:45:02.396Z,5.30
2023-01-12T02:47:59.678Z,5.40
2023-01-12T02:53:20.906Z,5.40
2023-01-12T02:55:53.037Z,5.30
2023-01-12T02:58:28.568Z,5.20
2023-01-12T03:01:02.051Z,5.20
2023-01-12T03:03:36.157Z,5.10
2023-01-12T03:06:10.022Z,5.10
2023-01-12T03:08:43.057Z,5.00
2023-01-12T03:11:18.028Z,5.00
2023-01-12T03:13:54.297Z,5.00
2023-01-12T03:16:31.704Z,5.10
2023-01-12T03:19:09.849Z,5.00
2023-01-12T03:21:45.443Z,5.00
2023-01-12T03:24:24.389Z,4.90
2023-01-12T03:27:04.774Z,4.90
2023-01-12T03:29:39.725Z,5.10
2023-01-12T03:32:10.623Z,5.30
2023-01-12T03:34:41.716Z,5.30
2023-01-12T03:37:20.000Z,5.50
2023-01-12T03:40:03.169Z,5.40
2023-01-12T03:42:46.818Z,5.40
2023-01-12T03:45:30.245Z,5.50
2023-01-12T03:48:12.283Z,5.50
2023-01-12T03:50:50.383Z,5.40
2023-01-12T03:53:24.939Z,5.40
2023-01-12T03:56:01.693Z,5.30
2023-01-12T03:58:32.683Z,5.30
2023-01-12T04:01:02.878Z,5.30
2023-01-12T04:03:33.296Z,5.40
2023-01-12T04:06:03.364Z,5.30
2023-01-12T04:08:33.468Z,5.20
2023-01-12T04:11:27.416Z,5.20
2023-01-12T04:13:54.807Z,5.20
2023-01-12T04:16:25.345Z,5.20
2023-01-12T04:18:55.304Z,5.30
2023-01-12T04:21:37.854Z,5.20
2023-01-12T04:24:09.067Z,5.20
2023-01-12T04:26:41.700Z,5.40
2023-01-12T04:29:11.652Z,5.50
2023-01-12T04:31:42.634Z,5.60
2023-01-12T04:34:12.955Z,5.70
2023-01-12T04:36:45.281Z,5.80
2023-01-12T04:39:15.381Z,5.80
2023-01-12T04:41:48.008Z,5.90
2023-01-12T04:44:17.997Z,6.00
2023-01-12T04:46:47.992Z,6.10
2023-01-12T04:49:18.122Z,6.10
2023-01-12T04:51:48.454Z,6.00
2023-01-12T04:54:18.504Z,6.00
2023-01-12T04:56:51.091Z,6.00
2023-01-12T04:59:21.574Z,5.90
2023-01-12T05:01:51.589Z,5.80
2023-01-12T05:04:22.515Z,5.80
2023-01-12T05:06:52.587Z,5.90
2023-01-12T05:09:35.066Z,5.80
2023-01-12T05:12:08.680Z,5.80
2023-01-12T05:14:38.670Z,6.10
2023-01-12T05:17:08.669Z,6.20
2023-01-12T05:19:38.691Z,6.30
2023-01-12T05:22:08.643Z,6.40
2023-01-12T05:24:38.769Z,6.50
2023-01-12T05:27:11.397Z,6.50
2023-01-12T05:29:41.341Z,6.60
2023-01-12T05:32:11.362Z,6.60
2023-01-12T05:34:41.667Z,6.80
2023-01-12T05:37:11.761Z,6.90
2023-01-12T05:39:41.970Z,6.80
2023-01-12T05:42:27.048Z,6.90
2023-01-12T05:44:57.012Z,6.90
2023-01-12T05:47:27.371Z,7.00
2023-01-12T05:49:57.332Z,7.10
2023-01-12T05:52:27.402Z,7.00
2023-01-12T05:54:57.894Z,7.00
2023-01-12T05:57:32.724Z,7.00
2023-01-12T06:00:02.653Z,7.10
2023-01-12T06:02:42.280Z,7.10
2023-01-12T06:05:12.681Z,7.10
2023-01-12T06:07:42.795Z,7.10
2023-01-12T06:10:15.319Z,7.20
2023-01-12T06:13:00.404Z,7.20
2023-01-12T06:15:30.653Z,7.20
2023-01-12T06:18:00.633Z,7.20
2023-01-12T06:20:30.625Z,7.10
2023-01-12T06:23:05.445Z,7.10
2023-01-12T06:25:35.812Z,7.00
2023-01-12T06:28:09.107Z,7.10
2023-01-12T06:30:39.054Z,7.10
2023-01-12T06:33:09.016Z,7.20
2023-01-12T06:35:39.015Z,7.10
2023-01-12T06:38:08.952Z,7.10
2023-01-12T06:40:39.021Z,7.20
2023-01-12T06:43:11.559Z,7.30
2023-01-12T06:45:41.680Z,7.30
2023-01-12T06:48:11.668Z,7.30
2023-01-12T06:50:41.680Z,7.20
2023-01-12T06:53:12.444Z,7.20
2023-01-12T06:55:42.435Z,7.30
2023-01-12T06:58:15.094Z,7.30
2023-01-12T07:00:45.075Z,7.20
2023-01-12T07:03:21.165Z,7.20
2023-01-12T07:05:51.096Z,7.30
2023-01-12T07:08:21.112Z,7.30
2023-01-12T07:10:51.064Z,7.30
2023-01-12T07:13:24.147Z,7.30
2023-01-12T07:15:54.135Z,7.40
2023-01-12T07:18:24.211Z,7.40
2023-01-12T07:20:54.194Z,7.50
2023-01-12T07:23:24.211Z,7.40
2023-01-12T07:25:54.417Z,7.30
2023-01-12T07:28:27.349Z,7.40
2023-01-12T07:31:03.405Z,7.50
2023-01-12T07:33:34.537Z,7.50
2023-01-12T07:36:05.351Z,7.40
2023-01-12T07:38:36.030Z,7.40
2023-01-12T07:41:27.504Z,7.40
2023-01-12T07:44:05.303Z,7.50
2023-01-12T07:46:35.412Z,7.50
2023-01-12T07:49:05.535Z,7.50
2023-01-12T07:51:35.515Z,7.50
2023-01-12T07:54:05.682Z,7.50
2023-01-12T07:56:35.672Z,7.50
2023-01-12T07:59:08.331Z,7.50
2023-01-12T08:01:38.403Z,7.70
2023-01-12T08:04:08.738Z,7.90
2023-01-12T08:06:38.828Z,7.90
2023-01-12T08:09:09.246Z,8.00
2023-01-12T08:11:40.779Z,8.00
2023-01-12T08:14:26.242Z,8.00
2023-01-12T08:17:01.488Z,8.10
2023-01-12T08:19:38.858Z,8.10
2023-01-12T08:22:15.941Z,8.30
2023-01-12T08:24:52.609Z,8.30
2023-01-12T08:27:28.822Z,8.30
2023-01-12T08:30:04.372Z,8.30
2023-01-12T08:32:35.814Z,8.30
2023-01-12T08:35:07.829Z,8.40
2023-01-12T08:37:38.134Z,8.50
2023-01-12T08:40:11.478Z,8.60
2023-01-12T08:42:41.503Z,8.60
2023-01-12T08:45:14.695Z,8.70
2023-01-12T08:47:45.405Z,8.70
2023-01-12T08:50:15.378Z,8.70
2023-01-12T08:52:45.295Z,8.60
2023-01-12T08:55:15.242Z,8.70
2023-01-12T08:57:45.181Z,8.70
2023-01-12T09:00:19.738Z,8.70
2023-01-12T09:02:49.912Z,8.80
2023-01-12T09:05:20.077Z,8.80
2023-01-12T09:07:50.042Z,8.90
2023-01-12T09:10:20.380Z,8.90
2023-01-12T09:12:50.353Z,8.90
2023-01-12T09:15:23.836Z,8.80
2023-01-12T09:17:55.802Z,9.00
2023-01-12T09:20:26.373Z,9.00
2023-01-12T09:22:56.307Z,9.00
2023-01-12T09:25:26.346Z,9.00
2023-01-12T09:27:56.425Z,9.00
2023-01-12T09:30:29.040Z,9.10
2023-01-12T09:32:59.100Z,9.10
2023-01-12T09:35:29.067Z,9.10
2023-01-12T09:37:59.044Z,9.10
2023-01-12T09:40:29.164Z,9.10
2023-01-12T09:43:24.007Z,9.10
2023-01-12T09:46:09.221Z,9.00
2023-01-12T09:48:39.284Z,9.10
2023-01-12T09:51:17.009Z,9.10
2023-01-12T09:53:47.776Z,9.20
2023-01-12T09:56:28.116Z,9.20
2023-01-12T09:59:18.382Z,9.20
2023-01-12T10:01:54.833Z,9.30
2023-01-12T10:04:25.391Z,9.50
2023-01-12T10:06:55.628Z,9.50
2023-01-12T10:09:26.764Z,9.60
2023-01-12T10:12:10.999Z,9.60
2023-01-12T10:15:20.493Z,9.60
2023-01-12T10:18:03.047Z,9.60
2023-01-12T10:20:39.887Z,9.70
2023-01-12T10:23:24.461Z,9.70
2023-01-12T10:26:03.267Z,9.80
2023-01-12T10:28:37.169Z,9.90
2023-01-12T10:31:18.125Z,10.00
2023-01-12T10:34:07.229Z,10.00
2023-01-12T10:36:40.279Z,10.10
2023-01-12T10:39:33.135Z,10.20
2023-01-12T10:42:35.259Z,10.30
2023-01-12T10:45:20.898Z,10.40
2023-01-12T10:47:54.198Z,10.60
2023-01-12T10:50:31.553Z,10.80
2023-01-12T10:53:07.160Z,10.90
2023-01-12T10:55:42.341Z,11.20
2023-01-12T10:58:25.407Z,11.20
2023-01-12T11:00:56.652Z,11.10
2023-01-12T11:03:37.430Z,11.10
2023-01-12T11:06:30.570Z,11.20
2023-01-12T11:09:00.802Z,11.20
2023-01-12T11:11:35.145Z,11.10
2023-01-12T11:14:09.042Z,11.00
2023-01-12T11:16:50.163Z,10.90
2023-01-12T11:19:24.576Z,11.00
2023-01-12T11:22:04.229Z,11.00
2023-01-12T11:24:44.655Z,11.00
2023-01-12T11:27:27.136Z,10.90
2023-01-12T11:30:03.581Z,10.90
2023-01-12T11:32:43.192Z,10.90
2023-01-12T11:35:30.962Z,10.80
2023-01-12T11:38:14.539Z,10.70
2023-01-12T11:40:46.892Z,10.70
2023-01-12T11:43:58.637Z,10.60
2023-01-12T11:46:36.791Z,10.50
2023-01-12T11:49:20.441Z,10.40
2023-01-12T11:51:56.543Z,10.30
2023-01-12T11:54:31.857Z,10.30
2023-01-12T11:57:24.766Z,10.40
2023-01-12T12:00:18.362Z,10.40
2023-01-12T12:03:07.195Z,10.40
2023-01-12T12:05:50.631Z,10.40
2023-01-12T12:08:39.458Z,10.50
2023-01-12T12:11:26.428Z,10.30
2023-01-12T12:14:13.879Z,10.20
2023-01-12T12:16:57.356Z,10.10
2023-01-12T12:19:40.854Z,9.90
2023-01-12T12:22:26.924Z,9.90
2023-01-12T12:25:20.192Z,9.80
2023-01-12T12:28:33.325Z,9.60
2023-01-12T12:31:17.804Z,9.60
2023-01-12T12:34:09.880Z,9.80
2023-01-12T12:36:53.070Z,10.00
2023-01-12T12:39:45.249Z,10.20
2023-01-12T12:42:49.594Z,10.30
2023-01-12T12:45:39.513Z,10.40
2023-01-12T12:48:20.958Z,10.60
2023-01-12T12:51:00.263Z,10.70
2023-01-12T12:53:35.644Z,10.70
2023-01-12T12:56:10.515Z,10.70
2023-01-12T12:58:49.464Z,10.70
2023-01-12T13:02:02.506Z,10.80
2023-01-12T13:05:12.193Z,10.80
2023-01-12T13:07:54.380Z,10.90
2023-01-12T13:10:33.454Z,10.80
2023-01-12T13:13:28.427Z,10.80
2023-01-12T13:16:48.408Z,10.80
2023-01-12T13:19:39.376Z,11.00
2023-01-12T13:22:32.972Z,11.00
2023-01-12T13:25:40.664Z,11.00
2023-01-12T13:28:22.726Z,10.90
2023-01-12T13:30:57.683Z,10.80
2023-01-12T13:33:30.871Z,10.80
2023-01-12T13:36:11.239Z,10.80
2023-01-12T13:38:56.655Z,10.90
2023-01-12T13:41:45.870Z,10.80
2023-01-12T13:44:25.523Z,10.80
2023-01-12T13:47:11.111Z,10.80
2023-01-12T13:49:51.817Z,10.80
2023-01-12T13:52:34.037Z,10.80
2023-01-12T13:55:06.183Z,10.90
2023-01-12T13:57:36.205Z,10.80
2023-01-12T14:00:22.445Z,10.70
2023-01-12T14:02:53.781Z,10.70
2023-01-12T14:05:47.193Z,10.60
2023-01-12T14:08:52.528Z,10.50
2023-01-12T14:12:01.777Z,10.60
2023-01-12T14:15:15.091Z,10.60
2023-01-12T14:17:53.491Z,10.50
2023-01-12T14:20:27.697Z,10.40
2023-01-12T14:23:21.300Z,10.40
2023-01-12T14:26:09.400Z,10.50
2023-01-12T14:28:42.593Z,10.40
2023-01-12T14:31:25.001Z,10.40
2023-01-12T14:33:58.796Z,10.40
2023-01-12T14:36:32.815Z,10.40
2023-01-12T14:39:03.694Z,10.30
2023-01-12T14:41:48.902Z,10.40
2023-01-12T14:44:37.563Z,10.20
2023-01-12T14:47:08.312Z,10.20
2023-01-12T14:49:41.128Z,10.20
2023-01-12T14:52:28.992Z,10.10
2023-01-12T14:55:16.128Z,10.10
2023-01-12T14:57:53.402Z,10.20
2023-01-12T15:00:28.271Z,10.10
2023-01-12T15:03:01.035Z,10.10
2023-01-12T15:05:34.415Z,10.10
2023-01-12T15:08:26.782Z,10.00
2023-01-12T15:11:03.080Z,10.00
2023-01-12T15:13:38.544Z,10.00
2023-01-12T15:16:24.379Z,9.90
2023-01-12T15:19:07.178Z,9.80
2023-01-12T15:21:52.196Z,9.80
2023-01-12T15:24:41.383Z,9.90
2023-01-12T15:27:13.885Z,9.80
2023-01-12T15:29:47.098Z,9.90
2023-01-12T15:32:27.640Z,9.80
2023-01-12T15:35:03.758Z,9.80
2023-01-12T15:37:33.733Z,9.80
2023-01-12T15:40:03.757Z,9.80
2023-01-12T15:42:33.783Z,9.80
2023-01-12T15:45:17.069Z,9.80
2023-01-12T15:47:47.101Z,9.80
2023-01-12T15:50:17.442Z,9.70
2023-01-12T15:52:49.696Z,9.70
2023-01-12T15:55:24.235Z,9.70
2023-01-12T15:57:54.448Z,9.60
2023-01-12T16:00:27.584Z,9.70
2023-01-12T16:03:00.088Z,9.70
2023-01-12T16:05:30.511Z,9.70
2023-01-12T16:08:00.790Z,9.60
2023-01-12T16:10:31.328Z,9.60
2023-01-12T16:13:06.928Z,9.70
2023-01-12T16:15:40.325Z,9.70
2023-01-12T16:18:10.318Z,9.60
2023-01-12T16:20:40.348Z,9.60
2023-01-12T16:23:10.311Z,9.60
2023-01-12T16:25:40.477Z,9.70
2023-01-12T16:28:10.549Z,9.60
2023-01-12T16:30:49.289Z,9.50
2023-01-12T16:33:19.337Z,9.60
2023-01-12T16:35:49.468Z,9.40
2023-01-12T16:38:21.390Z,9.50
2023-01-12T16:40:51.586Z,9.50
2023-01-12T16:43:22.780Z,9.50
2023-01-12T16:45:55.612Z,9.40
2023-01-12T16:48:25.585Z,9.40
2023-01-12T16:50:55.665Z,9.50
2023-01-12T16:53:26.037Z,9.50
2023-01-12T16:55:56.259Z,9.50
2023-01-12T16:58:26.260Z,9.40
2023-01-12T17:00:59.434Z,9.40
2023-01-12T17:03:29.840Z,9.30
2023-01-12T17:05:59.836Z,9.30
2023-01-12T17:08:31.824Z,9.30
2023-01-12T17:11:08.851Z,9.40
2023-01-12T17:13:39.853Z,9.50
2023-01-12T17:16:14.875Z,9.50
2023-01-12T17:18:45.201Z,9.50
2023-01-12T17:21:17.710Z,9.50
2023-01-12T17:23:48.728Z,9.60
2023-01-12T17:26:21.002Z,9.60
2023-01-12T17:28:51.151Z,9.60
2023-01-12T17:31:23.972Z,9.70
2023-01-12T17:33:54.047Z,9.70
2023-01-12T17:36:24.177Z,9.70
2023-01-12T17:38:54.207Z,9.60
2023-01-12T17:41:36.779Z,9.50
2023-01-12T17:44:08.697Z,9.60
2023-01-12T17:46:41.760Z,9.50
2023-01-12T17:49:12.980Z,9.40
2023-01-12T17:51:44.276Z,9.40
2023-01-12T17:54:16.986Z,9.40
2023-01-12T17:56:47.625Z,9.40
2023-01-12T17:59:22.923Z,9.40
2023-01-12T18:01:55.718Z,9.40
2023-01-12T18:04:26.601Z,9.40
2023-01-12T18:06:58.620Z,9.40
2023-01-12T18:09:31.263Z,9.40
2023-01-12T18:12:01.545Z,9.30
2023-01-12T18:14:32.009Z,9.30
2023-01-12T18:17:04.637Z,9.30
2023-01-12T18:19:35.815Z,9.40
2023-01-12T18:22:07.094Z,9.40
2023-01-12T18:24:37.932Z,9.50
2023-01-12T18:27:07.991Z,9.50
2023-01-12T18:29:38.149Z,9.50
2023-01-12T18:32:11.226Z,9.50
2023-01-12T18:34:42.197Z,9.50
2023-01-12T18:37:13.750Z,9.60
2023-01-12T18:39:45.205Z,9.70
2023-01-12T18:42:27.647Z,9.70
2023-01-12T18:44:59.496Z,9.80
2023-01-12T18:47:44.571Z,9.70
2023-01-12T18:50:27.126Z,9.70
2023-01-12T18:53:09.707Z,9.70
2023-01-12T18:55:40.090Z,9.80
2023-01-12T18:58:10.096Z,9.80
2023-01-12T19:00:40.745Z,9.80
2023-01-12T19:03:13.495Z,9.80
2023-01-12T19:05:54.751Z,9.70
2023-01-12T19:08:40.037Z,9.70
2023-01-12T19:11:12.653Z,9.80
2023-01-12T19:13:56.004Z,9.70
2023-01-12T19:16:39.033Z,9.60
2023-01-12T19:19:11.989Z,9.50
2023-01-12T19:21:55.085Z,9.60
2023-01-12T19:24:37.906Z,9.40
2023-01-12T19:27:20.572Z,9.50
2023-01-12T19:29:50.955Z,9.50
2023-01-12T19:32:21.718Z,9.50
2023-01-12T19:35:02.419Z,9.50
2023-01-12T19:37:40.366Z,9.60
2023-01-12T19:40:19.593Z,9.60
2023-01-12T19:43:02.049Z,9.70
2023-01-12T19:45:32.413Z,9.70
2023-01-12T19:48:03.761Z,9.70
2023-01-12T19:50:37.105Z,9.80
2023-01-12T19:53:09.814Z,9.80
2023-01-12T19:55:39.977Z,9.80
2023-01-12T19:58:10.673Z,9.80
2023-01-12T20:00:44.906Z,9.80
2023-01-12T20:03:16.972Z,9.70
2023-01-12T20:05:52.434Z,9.80
2023-01-12T20:08:25.716Z,9.80
2023-01-12T20:10:57.716Z,9.70
2023-01-12T20:13:28.391Z,9.80
2023-01-12T20:15:58.789Z,9.70
2023-01-12T20:18:28.844Z,9.80
2023-01-12T20:21:03.429Z,9.70
2023-01-12T20:23:33.403Z,9.80
2023-01-12T20:26:04.139Z,9.80
2023-01-12T20:28:34.270Z,9.90
2023-01-12T20:31:04.510Z,9.90
2023-01-12T20:33:34.503Z,10.00
2023-01-12T20:36:08.201Z,10.00
2023-01-12T20:38:38.523Z,9.90
2023-01-12T20:41:09.449Z,9.90
2023-01-12T20:43:40.574Z,9.90
2023-01-12T20:46:12.058Z,9.90
2023-01-12T20:48:43.438Z,9.90
2023-01-12T20:51:18.974Z,9.70
2023-01-12T20:53:48.981Z,9.80
2023-01-12T20:56:20.824Z,9.60
2023-01-12T20:58:51.844Z,9.60
2023-01-12T21:01:22.307Z,9.60
2023-01-12T21:03:52.690Z,9.50
2023-01-12T21:06:26.405Z,9.60
2023-01-12T21:08:56.414Z,9.50
2023-01-12T21:11:26.740Z,9.50
2023-01-12T21:13:56.775Z,9.50
2023-01-12T21:16:28.820Z,9.40
2023-01-12T21:18:59.202Z,9.40
2023-01-12T21:21:32.059Z,9.40
2023-01-12T21:24:02.248Z,9.40
2023-01-12T21:26:32.832Z,9.40
2023-01-12T21:29:03.218Z,9.50
2023-01-12T21:31:33.522Z,9.50
2023-01-12T21:34:03.542Z,9.40
2023-01-12T21:36:36.466Z,9.40
2023-01-12T21:39:07.103Z,9.30
2023-01-12T21:41:57.135Z,9.40
2023-01-12T21:44:24.590Z,9.40
2023-01-12T21:46:54.601Z,9.30
2023-01-12T21:49:24.861Z,9.30
2023-01-12T21:51:57.680Z,9.30
2023-01-12T21:54:27.675Z,9.30
2023-01-12T21:56:58.931Z,9.30
2023-01-12T21:59:28.946Z,9.30
2023-01-12T22:01:59.186Z,9.30
2023-01-12T22:04:29.294Z,9.30
2023-01-12T22:07:01.988Z,9.30
2023-01-12T22:09:32.091Z,9.30
2023-01-12T22:12:02.465Z,9.30
2023-01-12T22:14:32.496Z,9.40
2023-01-12T22:17:02.474Z,9.30
2023-01-12T22:19:32.509Z,9.30
2023-01-12T22:22:06.394Z,9.30
2023-01-12T22:24:38.274Z,9.20
2023-01-12T22:27:08.477Z,9.30
2023-01-12T22:29:38.600Z,9.30
2023-01-12T22:32:09.625Z,9.30
2023-01-12T22:34:39.656Z,9.30
2023-01-12T22:37:12.819Z,9.30
2023-01-12T22:39:42.931Z,9.30
2023-01-12T22:42:12.870Z,9.30
2023-01-12T22:44:43.287Z,9.30
2023-01-12T22:47:13.335Z,9.30
2023-01-12T22:49:43.550Z,9.30
2023-01-12T22:52:16.116Z,9.40
2023-01-12T22:54:46.145Z,9.40
2023-01-12T22:57:16.086Z,9.40
2023-01-12T22:59:46.118Z,9.40
2023-01-12T23:02:29.022Z,9.30
2023-01-12T23:04:59.241Z,9.30
2023-01-12T23:07:31.960Z,9.40
2023-01-12T23:10:02.037Z,9.40
2023-01-12T23:12:32.781Z,9.40
2023-01-12T23:15:02.942Z,9.30
2023-01-12T23:17:33.384Z,9.30
2023-01-12T23:20:03.447Z,9.30
2023-01-12T23:22:36.354Z,9.50
2023-01-12T23:25:06.973Z,9.50
2023-01-12T23:27:37.356Z,9.50
2023-01-12T23:30:08.989Z,9.60
2023-01-12T23:32:39.142Z,9.60
2023-01-12T23:35:10.380Z,9.60
2023-01-12T23:37:44.856Z,9.60
2023-01-12T23:40:15.793Z,9.50
2023-01-12T23:42:46.062Z,9.50
2023-01-12T23:45:16.267Z,9.50
2023-01-12T23:47:46.451Z,9.50
2023-01-12T23:50:16.711Z,9.50
2023-01-12T23:52:51.721Z,9.50
2023-01-12T23:55:22.095Z,9.50
2023-01-12T23:57:52.298Z,9.60
